sensor_id;sensor_type;location;lat;lon;timestamp;temperature;humidity
78448;SHT31;67742;51.972;5.682;2023-03-01T00:02:14;4.7;45.9
78448;SHT31;67742;51.972;5.682;2023-03-01T00:04:44;4.7;46.0
78448;SHT31;67742;51.972;5.682;2023-03-01T00:07:13;4.7;45.8
78448;SHT31;67742;51.972;5.682;2023-03-01T00:09:43;4.6;45.8
78448;SHT31;67742;51.972;5.682;2023-03-01T00:12:13;4.6;45.8
78448;SHT31;67742;51.972;5.682;2023-03-01T00:14:42;4.6;45.8
78448;SHT31;67742;51.972;5.682;2023-03-01T00:17:12;4.6;45.9
78448;SHT31;67742;51.972;5.682;2023-03-01T00:19:42;4.6;45.8
78448;SHT31;67742;51.972;5.682;2023-03-01T00:22:11;4.6;45.8
78448;SHT31;67742;51.972;5.682;2023-03-01T00:24:41;4.6;45.7
78448;SHT31;67742;51.972;5.682;2023-03-01T00:27:10;4.6;45.9
78448;SHT31;67742;51.972;5.682;2023-03-01T00:29:40;4.6;45.9
78448;SHT31;67742;51.972;5.682;2023-03-01T00:32:09;4.6;45.8
78448;SHT31;67742;51.972;5.682;2023-03-01T00:34:38;4.6;45.7
78448;SHT31;67742;51.972;5.682;2023-03-01T00:37:08;4.6;45.7
78448;SHT31;67742;51.972;5.682;2023-03-01T00:39:38;4.6;45.8
78448;SHT31;67742;51.972;5.682;2023-03-01T00:42:07;4.6;46.0
78448;SHT31;67742;51.972;5.682;2023-03-01T00:44:37;4.6;46.0
78448;SHT31;67742;51.972;5.682;2023-03-01T00:47:06;4.5;46.1
78448;SHT31;67742;51.972;5.682;2023-03-01T00:49:35;4.5;46.0
78448;SHT31;67742;51.972;5.682;2023-03-01T00:52:06;4.5;46.0
78448;SHT31;67742;51.972;5.682;2023-03-01T00:54:35;4.5;46.2
78448;SHT31;67742;51.972;5.682;2023-03-01T00:57:05;4.5;46.2
78448;SHT31;67742;51.972;5.682;2023-03-01T00:59:34;4.5;46.2
78448;SHT31;67742;51.972;5.682;2023-03-01T01:02:04;4.5;46.0
78448;SHT31;67742;51.972;5.682;2023-03-01T01:04:33;4.5;46.1
78448;SHT31;67742;51.972;5.682;2023-03-01T01:07:03;4.5;46.2
78448;SHT31;67742;51.972;5.682;2023-03-01T01:09:33;4.4;46.2
78448;SHT31;67742;51.972;5.682;2023-03-01T01:12:03;4.4;46.5
78448;SHT31;67742;51.972;5.682;2023-03-01T01:14:33;4.4;46.6
78448;SHT31;67742;51.972;5.682;2023-03-01T01:17:03;4.4;46.7
78448;SHT31;67742;51.972;5.682;2023-03-01T01:19:35;4.4;46.8
78448;SHT31;67742;51.972;5.682;2023-03-01T01:22:04;4.4;46.8
78448;SHT31;67742;51.972;5.682;2023-03-01T01:24:34;4.4;46.7
78448;SHT31;67742;51.972;5.682;2023-03-01T01:27:04;4.4;46.8
78448;SHT31;67742;51.972;5.682;2023-03-01T01:29:34;4.4;46.7
78448;SHT31;67742;51.972;5.682;2023-03-01T01:32:05;4.4;46.6
78448;SHT31;67742;51.972;5.682;2023-03-01T01:34:35;4.3;46.8
78448;SHT31;67742;51.972;5.682;2023-03-01T01:37:05;4.3;46.9
78448;SHT31;67742;51.972;5.682;2023-03-01T01:39:35;4.3;46.9
78448;SHT31;67742;51.972;5.682;2023-03-01T01:42:05;4.3;47.1
78448;SHT31;67742;51.972;5.682;2023-03-01T01:44:35;4.3;47.1
78448;SHT31;67742;51.972;5.682;2023-03-01T01:47:06;4.3;47.2
78448;SHT31;67742;51.972;5.682;2023-03-01T01:49:41;4.3;47.2
78448;SHT31;67742;51.972;5.682;2023-03-01T01:52:16;4.3;47.1
78448;SHT31;67742;51.972;5.682;2023-03-01T01:54:52;4.3;47.1
78448;SHT31;67742;51.972;5.682;2023-03-01T01:57:26;4.3;47.0
78448;SHT31;67742;51.972;5.682;2023-03-01T02:00:03;4.2;47.1
78448;SHT31;67742;51.972;5.682;2023-03-01T02:02:36;4.2;47.0
78448;SHT31;67742;51.972;5.682;2023-03-01T02:05:12;4.2;47.0
78448;SHT31;67742;51.972;5.682;2023-03-01T02:07:44;4.2;47.1
78448;SHT31;67742;51.972;5.682;2023-03-01T02:10:17;4.2;47.0
78448;SHT31;67742;51.972;5.682;2023-03-01T02:12:49;4.2;46.9
78448;SHT31;67742;51.972;5.682;2023-03-01T02:15:19;4.2;47.0
78448;SHT31;67742;51.972;5.682;2023-03-01T02:17:48;4.2;46.9
78448;SHT31;67742;51.972;5.682;2023-03-01T02:20:25;4.2;46.9
78448;SHT31;67742;51.972;5.682;2023-03-01T02:22:56;4.2;46.8
78448;SHT31;67742;51.972;5.682;2023-03-01T02:25:32;4.2;46.8
78448;SHT31;67742;51.972;5.682;2023-03-01T02:28:10;4.2;46.9
78448;SHT31;67742;51.972;5.682;2023-03-01T02:30:41;4.1;46.9
78448;SHT31;67742;51.972;5.682;2023-03-01T02:33:17;4.1;46.7
78448;SHT31;67742;51.972;5.682;2023-03-01T02:35:47;4.1;46.8
78448;SHT31;67742;51.972;5.682;2023-03-01T02:38:17;4.1;46.9
78448;SHT31;67742;51.972;5.682;2023-03-01T02:40:50;4.1;47.0
78448;SHT31;67742;51.972;5.682;2023-03-01T02:43:23;4.1;46.9
78448;SHT31;67742;51.972;5.682;2023-03-01T02:46:03;4.1;46.9
78448;SHT31;67742;51.972;5.682;2023-03-01T02:48:42;4.1;46.8
78448;SHT31;67742;51.972;5.682;2023-03-01T02:51:34;4.1;46.9
78448;SHT31;67742;51.972;5.682;2023-03-01T02:54:17;4.1;47.0
78448;SHT31;67742;51.972;5.682;2023-03-01T02:56:51;4.1;46.7
78448;SHT31;67742;51.972;5.682;2023-03-01T02:59:25;4.1;46.6
78448;SHT31;67742;51.972;5.682;2023-03-01T03:01:55;4.1;46.1
78448;SHT31;67742;51.972;5.682;2023-03-01T03:04:25;4.1;45.9
78448;SHT31;67742;51.972;5.682;2023-03-01T03:06:54;4.0;45.8
78448;SHT31;67742;51.972;5.682;2023-03-01T03:09:26;4.0;45.8
78448;SHT31;67742;51.972;5.682;2023-03-01T03:11:55;4.0;46.0
78448;SHT31;67742;51.972;5.682;2023-03-01T03:14:26;3.9;46.0
78448;SHT31;67742;51.972;5.682;2023-03-01T03:16:56;3.9;46.0
78448;SHT31;67742;51.972;5.682;2023-03-01T03:19:28;3.9;46.2
78448;SHT31;67742;51.972;5.682;2023-03-01T03:21:59;3.8;46.3
78448;SHT31;67742;51.972;5.682;2023-03-01T03:24:29;3.8;46.4
78448;SHT31;67742;51.972;5.682;2023-03-01T03:27:04;3.8;46.3
78448;SHT31;67742;51.972;5.682;2023-03-01T03:29:34;3.8;46.4
78448;SHT31;67742;51.972;5.682;2023-03-01T03:32:04;3.8;46.4
78448;SHT31;67742;51.972;5.682;2023-03-01T03:34:34;3.8;46.6
78448;SHT31;67742;51.972;5.682;2023-03-01T03:37:04;3.8;46.3
78448;SHT31;67742;51.972;5.682;2023-03-01T03:39:38;3.8;46.3
78448;SHT31;67742;51.972;5.682;2023-03-01T03:42:07;3.8;46.2
78448;SHT31;67742;51.972;5.682;2023-03-01T03:44:37;3.8;46.3
78448;SHT31;67742;51.972;5.682;2023-03-01T03:47:07;3.8;46.3
78448;SHT31;67742;51.972;5.682;2023-03-01T03:49:36;3.8;46.3
78448;SHT31;67742;51.972;5.682;2023-03-01T03:52:06;3.7;46.4
78448;SHT31;67742;51.972;5.682;2023-03-01T03:54:41;3.7;46.5
78448;SHT31;67742;51.972;5.682;2023-03-01T03:57:11;3.7;46.6
78448;SHT31;67742;51.972;5.682;2023-03-01T03:59:40;3.7;46.7
78448;SHT31;67742;51.972;5.682;2023-03-01T04:02:12;3.6;46.7
78448;SHT31;67742;51.972;5.682;2023-03-01T04:04:46;3.6;46.9
78448;SHT31;67742;51.972;5.682;2023-03-01T04:07:17;3.6;47.0
78448;SHT31;67742;51.972;5.682;2023-03-01T04:09:48;3.6;46.9
78448;SHT31;67742;51.972;5.682;2023-03-01T04:12:18;3.6;46.9
78448;SHT31;67742;51.972;5.682;2023-03-01T04:14:50;3.6;46.9
78448;SHT31;67742;51.972;5.682;2023-03-01T04:17:20;3.6;46.9
78448;SHT31;67742;51.972;5.682;2023-03-01T04:19:50;3.6;47.0
78448;SHT31;67742;51.972;5.682;2023-03-01T04:22:20;3.6;47.0
78448;SHT31;67742;51.972;5.682;2023-03-01T04:24:50;3.5;47.1
78448;SHT31;67742;51.972;5.682;2023-03-01T04:27:20;3.5;47.2
78448;SHT31;67742;51.972;5.682;2023-03-01T04:29:49;3.5;47.3
78448;SHT31;67742;51.972;5.682;2023-03-01T04:32:19;3.5;47.3
78448;SHT31;67742;51.972;5.682;2023-03-01T04:34:48;3.5;47.3
78448;SHT31;67742;51.972;5.682;2023-03-01T04:37:17;3.5;47.3
78448;SHT31;67742;51.972;5.682;2023-03-01T04:39:47;3.5;47.4
78448;SHT31;67742;51.972;5.682;2023-03-01T04:42:17;3.5;47.4
78448;SHT31;67742;51.972;5.682;2023-03-01T04:44:47;3.5;47.5
78448;SHT31;67742;51.972;5.682;2023-03-01T04:47:18;3.5;47.5
78448;SHT31;67742;51.972;5.682;2023-03-01T04:49:48;3.5;47.4
78448;SHT31;67742;51.972;5.682;2023-03-01T04:52:17;3.5;47.5
78448;SHT31;67742;51.972;5.682;2023-03-01T04:54:47;3.5;47.5
78448;SHT31;67742;51.972;5.682;2023-03-01T04:57:16;3.5;47.4
78448;SHT31;67742;51.972;5.682;2023-03-01T04:59:46;3.5;47.6
78448;SHT31;67742;51.972;5.682;2023-03-01T05:02:17;3.5;47.6
78448;SHT31;67742;51.972;5.682;2023-03-01T05:04:47;3.5;47.6
78448;SHT31;67742;51.972;5.682;2023-03-01T05:07:16;3.5;47.5
78448;SHT31;67742;51.972;5.682;2023-03-01T05:09:48;3.5;47.3
78448;SHT31;67742;51.972;5.682;2023-03-01T05:12:17;3.5;47.3
78448;SHT31;67742;51.972;5.682;2023-03-01T05:14:47;3.6;47.5
78448;SHT31;67742;51.972;5.682;2023-03-01T05:17:18;3.6;47.4
78448;SHT31;67742;51.972;5.682;2023-03-01T05:19:48;3.6;47.4
78448;SHT31;67742;51.972;5.682;2023-03-01T05:22:18;3.6;47.1
78448;SHT31;67742;51.972;5.682;2023-03-01T05:24:48;3.6;47.1
78448;SHT31;67742;51.972;5.682;2023-03-01T05:27:17;3.6;47.1
78448;SHT31;67742;51.972;5.682;2023-03-01T05:29:49;3.7;47.0
78448;SHT31;67742;51.972;5.682;2023-03-01T05:32:19;3.7;46.9
78448;SHT31;67742;51.972;5.682;2023-03-01T05:34:48;3.7;46.9
78448;SHT31;67742;51.972;5.682;2023-03-01T05:37:21;3.7;47.1
78448;SHT31;67742;51.972;5.682;2023-03-01T05:39:50;3.7;47.1
78448;SHT31;67742;51.972;5.682;2023-03-01T05:42:20;3.7;47.1
78448;SHT31;67742;51.972;5.682;2023-03-01T05:44:50;3.7;47.1
78448;SHT31;67742;51.972;5.682;2023-03-01T05:47:19;3.7;46.9
78448;SHT31;67742;51.972;5.682;2023-03-01T05:49:49;3.7;46.9
78448;SHT31;67742;51.972;5.682;2023-03-01T05:52:18;3.7;46.8
78448;SHT31;67742;51.972;5.682;2023-03-01T05:54:48;3.7;46.7
78448;SHT31;67742;51.972;5.682;2023-03-01T05:57:17;3.7;46.8
78448;SHT31;67742;51.972;5.682;2023-03-01T05:59:47;3.7;46.6
78448;SHT31;67742;51.972;5.682;2023-03-01T06:02:17;3.7;46.7
78448;SHT31;67742;51.972;5.682;2023-03-01T06:04:46;3.7;46.8
78448;SHT31;67742;51.972;5.682;2023-03-01T06:07:16;3.6;47.0
78448;SHT31;67742;51.972;5.682;2023-03-01T06:09:45;3.6;47.1
78448;SHT31;67742;51.972;5.682;2023-03-01T06:12:17;3.6;47.2
78448;SHT31;67742;51.972;5.682;2023-03-01T06:14:47;3.6;47.2
78448;SHT31;67742;51.972;5.682;2023-03-01T06:17:17;3.5;47.2
78448;SHT31;67742;51.972;5.682;2023-03-01T06:19:46;3.5;47.4
78448;SHT31;67742;51.972;5.682;2023-03-01T06:22:16;3.5;47.4
78448;SHT31;67742;51.972;5.682;2023-03-01T06:24:46;3.5;47.6
78448;SHT31;67742;51.972;5.682;2023-03-01T06:27:15;3.4;47.5
78448;SHT31;67742;51.972;5.682;2023-03-01T06:29:45;3.4;47.6
78448;SHT31;67742;51.972;5.682;2023-03-01T06:32:16;3.4;47.8
78448;SHT31;67742;51.972;5.682;2023-03-01T06:34:45;3.4;47.9
78448;SHT31;67742;51.972;5.682;2023-03-01T06:37:15;3.4;48.0
78448;SHT31;67742;51.972;5.682;2023-03-01T06:39:44;3.4;47.8
78448;SHT31;67742;51.972;5.682;2023-03-01T06:42:16;3.3;48.0
78448;SHT31;67742;51.972;5.682;2023-03-01T06:44:45;3.3;47.9
78448;SHT31;67742;51.972;5.682;2023-03-01T06:47:17;3.3;48.1
78448;SHT31;67742;51.972;5.682;2023-03-01T06:49:46;3.3;48.2
78448;SHT31;67742;51.972;5.682;2023-03-01T06:52:15;3.3;48.5
78448;SHT31;67742;51.972;5.682;2023-03-01T06:54:45;3.4;48.5
78448;SHT31;67742;51.972;5.682;2023-03-01T06:57:14;3.4;48.4
78448;SHT31;67742;51.972;5.682;2023-03-01T06:59:44;3.4;48.2
78448;SHT31;67742;51.972;5.682;2023-03-01T07:02:14;3.4;48.3
78448;SHT31;67742;51.972;5.682;2023-03-01T07:04:44;3.4;48.4
78448;SHT31;67742;51.972;5.682;2023-03-01T07:07:13;3.4;48.4
78448;SHT31;67742;51.972;5.682;2023-03-01T07:09:43;3.4;48.6
78448;SHT31;67742;51.972;5.682;2023-03-01T07:12:12;3.3;48.7
78448;SHT31;67742;51.972;5.682;2023-03-01T07:14:44;3.3;48.9
78448;SHT31;67742;51.972;5.682;2023-03-01T07:17:13;3.3;49.0
78448;SHT31;67742;51.972;5.682;2023-03-01T07:19:45;3.3;49.2
78448;SHT31;67742;51.972;5.682;2023-03-01T07:22:14;3.3;49.4
78448;SHT31;67742;51.972;5.682;2023-03-01T07:24:44;3.3;49.7
78448;SHT31;67742;51.972;5.682;2023-03-01T07:27:14;3.2;49.9
78448;SHT31;67742;51.972;5.682;2023-03-01T07:29:43;3.2;50.2
78448;SHT31;67742;51.972;5.682;2023-03-01T07:32:12;3.2;50.3
78448;SHT31;67742;51.972;5.682;2023-03-01T07:34:42;3.2;50.3
78448;SHT31;67742;51.972;5.682;2023-03-01T07:37:11;3.2;50.2
78448;SHT31;67742;51.972;5.682;2023-03-01T07:39:41;3.2;50.6
78448;SHT31;67742;51.972;5.682;2023-03-01T07:42:10;3.2;50.9
78448;SHT31;67742;51.972;5.682;2023-03-01T07:44:40;3.2;50.9
78448;SHT31;67742;51.972;5.682;2023-03-01T07:47:09;3.3;50.8
78448;SHT31;67742;51.972;5.682;2023-03-01T07:49:40;3.3;51.0
78448;SHT31;67742;51.972;5.682;2023-03-01T07:52:12;3.3;50.7
78448;SHT31;67742;51.972;5.682;2023-03-01T07:54:43;3.3;50.5
78448;SHT31;67742;51.972;5.682;2023-03-01T07:57:13;3.3;50.2
78448;SHT31;67742;51.972;5.682;2023-03-01T07:59:42;3.4;50.5
78448;SHT31;67742;51.972;5.682;2023-03-01T08:02:12;3.4;50.5
78448;SHT31;67742;51.972;5.682;2023-03-01T08:04:42;3.4;50.7
78448;SHT31;67742;51.972;5.682;2023-03-01T08:07:11;3.4;50.2
78448;SHT31;67742;51.972;5.682;2023-03-01T08:09:41;3.4;50.7
78448;SHT31;67742;51.972;5.682;2023-03-01T08:12:10;3.5;50.5
78448;SHT31;67742;51.972;5.682;2023-03-01T08:14:42;3.5;50.5
78448;SHT31;67742;51.972;5.682;2023-03-01T08:17:15;3.5;50.2
78448;SHT31;67742;51.972;5.682;2023-03-01T08:19:45;3.5;50.2
78448;SHT31;67742;51.972;5.682;2023-03-01T08:22:16;3.6;50.8
78448;SHT31;67742;51.972;5.682;2023-03-01T08:24:46;3.6;51.0
78448;SHT31;67742;51.972;5.682;2023-03-01T08:27:19;3.6;50.7
78448;SHT31;67742;51.972;5.682;2023-03-01T08:29:48;3.7;50.2
78448;SHT31;67742;51.972;5.682;2023-03-01T08:32:18;3.7;49.8
78448;SHT31;67742;51.972;5.682;2023-03-01T08:34:48;3.7;50.0
78448;SHT31;67742;51.972;5.682;2023-03-01T08:37:17;3.8;49.7
78448;SHT31;67742;51.972;5.682;2023-03-01T08:39:49;3.8;50.0
78448;SHT31;67742;51.972;5.682;2023-03-01T08:42:18;3.8;50.3
78448;SHT31;67742;51.972;5.682;2023-03-01T08:44:48;3.9;50.5
78448;SHT31;67742;51.972;5.682;2023-03-01T08:47:19;3.9;49.8
78448;SHT31;67742;51.972;5.682;2023-03-01T08:49:49;3.9;49.9
78448;SHT31;67742;51.972;5.682;2023-03-01T08:52:21;4.0;50.0
78448;SHT31;67742;51.972;5.682;2023-03-01T08:54:52;4.0;50.2
78448;SHT31;67742;51.972;5.682;2023-03-01T08:57:22;4.1;50.3
78448;SHT31;67742;51.972;5.682;2023-03-01T08:59:51;4.1;50.0
78448;SHT31;67742;51.972;5.682;2023-03-01T09:02:23;4.2;49.5
78448;SHT31;67742;51.972;5.682;2023-03-01T09:04:53;4.3;49.5
78448;SHT31;67742;51.972;5.682;2023-03-01T09:07:22;4.3;49.2
78448;SHT31;67742;51.972;5.682;2023-03-01T09:09:56;4.4;49.1
78448;SHT31;67742;51.972;5.682;2023-03-01T09:12:25;4.4;49.3
78448;SHT31;67742;51.972;5.682;2023-03-01T09:14:55;4.4;49.4
78448;SHT31;67742;51.972;5.682;2023-03-01T09:17:24;4.5;49.2
78448;SHT31;67742;51.972;5.682;2023-03-01T09:19:53;4.6;49.3
78448;SHT31;67742;51.972;5.682;2023-03-01T09:22:23;4.6;49.4
78448;SHT31;67742;51.972;5.682;2023-03-01T09:24:52;4.7;49.7
78448;SHT31;67742;51.972;5.682;2023-03-01T09:27:24;4.7;49.0
78448;SHT31;67742;51.972;5.682;2023-03-01T09:29:53;4.8;48.8
78448;SHT31;67742;51.972;5.682;2023-03-01T09:32:23;4.9;48.8
78448;SHT31;67742;51.972;5.682;2023-03-01T09:34:53;4.9;48.8
78448;SHT31;67742;51.972;5.682;2023-03-01T09:37:40;5.0;48.4
78448;SHT31;67742;51.972;5.682;2023-03-01T09:40:16;5.1;47.4
78448;SHT31;67742;51.972;5.682;2023-03-01T09:42:53;5.2;47.3
78448;SHT31;67742;51.972;5.682;2023-03-01T09:45:35;5.2;47.3
78448;SHT31;67742;51.972;5.682;2023-03-01T09:48:15;5.3;46.7
78448;SHT31;67742;51.972;5.682;2023-03-01T09:50:45;5.4;46.1
78448;SHT31;67742;51.972;5.682;2023-03-01T09:53:18;5.5;46.2
78448;SHT31;67742;51.972;5.682;2023-03-01T09:55:54;5.5;45.5
78448;SHT31;67742;51.972;5.682;2023-03-01T09:58:32;5.6;45.2
78448;SHT31;67742;51.972;5.682;2023-03-01T10:01:20;5.7;45.2
78448;SHT31;67742;51.972;5.682;2023-03-01T10:04:03;5.8;44.9
78448;SHT31;67742;51.972;5.682;2023-03-01T10:06:36;5.8;44.0
78448;SHT31;67742;51.972;5.682;2023-03-01T10:09:13;5.9;43.9
78448;SHT31;67742;51.972;5.682;2023-03-01T10:11:47;6.0;44.0
78448;SHT31;67742;51.972;5.682;2023-03-01T10:14:28;6.1;44.0
78448;SHT31;67742;51.972;5.682;2023-03-01T10:17:03;6.2;44.0
78448;SHT31;67742;51.972;5.682;2023-03-01T10:19:40;6.2;43.2
78448;SHT31;67742;51.972;5.682;2023-03-01T10:22:16;6.3;42.8
78448;SHT31;67742;51.972;5.682;2023-03-01T10:24:51;6.4;42.9
78448;SHT31;67742;51.972;5.682;2023-03-01T10:27:23;6.5;42.6
78448;SHT31;67742;51.972;5.682;2023-03-01T10:29:59;6.6;42.9
78448;SHT31;67742;51.972;5.682;2023-03-01T10:32:31;6.6;41.1
78448;SHT31;67742;51.972;5.682;2023-03-01T10:35:01;6.7;41.3
78448;SHT31;67742;51.972;5.682;2023-03-01T10:37:30;6.8;41.4
78448;SHT31;67742;51.972;5.682;2023-03-01T10:40:04;6.8;41.2
78448;SHT31;67742;51.972;5.682;2023-03-01T10:42:38;6.8;41.0
78448;SHT31;67742;51.972;5.682;2023-03-01T10:45:32;6.9;40.8
78448;SHT31;67742;51.972;5.682;2023-03-01T10:48:11;7.0;40.1
78448;SHT31;67742;51.972;5.682;2023-03-01T10:50:45;7.0;39.3
78448;SHT31;67742;51.972;5.682;2023-03-01T10:53:31;7.1;39.7
78448;SHT31;67742;51.972;5.682;2023-03-01T10:56:04;7.1;40.4
78448;SHT31;67742;51.972;5.682;2023-03-01T10:58:36;7.1;39.6
78448;SHT31;67742;51.972;5.682;2023-03-01T11:01:26;7.2;39.5
78448;SHT31;67742;51.972;5.682;2023-03-01T11:04:11;7.2;38.9
78448;SHT31;67742;51.972;5.682;2023-03-01T11:06:42;7.2;38.3
78448;SHT31;67742;51.972;5.682;2023-03-01T11:09:18;7.3;38.3
78448;SHT31;67742;51.972;5.682;2023-03-01T11:11:52;7.3;38.7
78448;SHT31;67742;51.972;5.682;2023-03-01T11:14:24;7.3;38.6
78448;SHT31;67742;51.972;5.682;2023-03-01T11:17:03;7.4;39.2
78448;SHT31;67742;51.972;5.682;2023-03-01T11:19:33;7.4;39.8
78448;SHT31;67742;51.972;5.682;2023-03-01T11:22:10;7.5;39.1
78448;SHT31;67742;51.972;5.682;2023-03-01T11:24:44;7.5;40.0
78448;SHT31;67742;51.972;5.682;2023-03-01T11:27:24;7.6;39.4
78448;SHT31;67742;51.972;5.682;2023-03-01T11:29:59;7.6;38.7
78448;SHT31;67742;51.972;5.682;2023-03-01T11:32:38;7.7;38.1
78448;SHT31;67742;51.972;5.682;2023-03-01T11:35:16;7.7;37.9
78448;SHT31;67742;51.972;5.682;2023-03-01T11:37:58;7.8;37.6
78448;SHT31;67742;51.972;5.682;2023-03-01T11:40:35;7.8;37.2
78448;SHT31;67742;51.972;5.682;2023-03-01T11:43:15;7.8;38.4
78448;SHT31;67742;51.972;5.682;2023-03-01T11:46:02;7.9;37.8
78448;SHT31;67742;51.972;5.682;2023-03-01T11:49:02;7.9;37.1
78448;SHT31;67742;51.972;5.682;2023-03-01T11:51:48;8.0;37.5
78448;SHT31;67742;51.972;5.682;2023-03-01T11:54:29;8.0;37.9
78448;SHT31;67742;51.972;5.682;2023-03-01T11:57:04;8.1;37.9
78448;SHT31;67742;51.972;5.682;2023-03-01T11:59:48;8.1;37.8
78448;SHT31;67742;51.972;5.682;2023-03-01T12:02:56;8.2;37.7
78448;SHT31;67742;51.972;5.682;2023-03-01T12:06:09;8.2;36.5
78448;SHT31;67742;51.972;5.682;2023-03-01T12:08:50;8.3;37.6
78448;SHT31;67742;51.972;5.682;2023-03-01T12:11:32;8.3;36.9
78448;SHT31;67742;51.972;5.682;2023-03-01T12:14:22;8.4;36.8
78448;SHT31;67742;51.972;5.682;2023-03-01T12:17:33;8.5;37.0
78448;SHT31;67742;51.972;5.682;2023-03-01T12:20:18;8.6;36.0
78448;SHT31;67742;51.972;5.682;2023-03-01T12:23:16;8.6;34.7
78448;SHT31;67742;51.972;5.682;2023-03-01T12:25:55;8.7;35.4
78448;SHT31;67742;51.972;5.682;2023-03-01T12:28:47;8.7;35.4
78448;SHT31;67742;51.972;5.682;2023-03-01T12:31:38;8.7;35.2
78448;SHT31;67742;51.972;5.682;2023-03-01T12:34:23;8.8;35.3
78448;SHT31;67742;51.972;5.682;2023-03-01T12:37:12;8.8;34.1
78448;SHT31;67742;51.972;5.682;2023-03-01T12:39:53;8.8;34.7
78448;SHT31;67742;51.972;5.682;2023-03-01T12:42:34;8.8;35.8
78448;SHT31;67742;51.972;5.682;2023-03-01T12:47:20;8.8;36.0
78448;SHT31;67742;51.972;5.682;2023-03-01T12:49:57;8.8;36.1
78448;SHT31;67742;51.972;5.682;2023-03-01T12:52:35;8.8;36.2
78448;SHT31;67742;51.972;5.682;2023-03-01T12:55:22;8.9;36.4
78448;SHT31;67742;51.972;5.682;2023-03-01T12:57:59;8.9;36.2
78448;SHT31;67742;51.972;5.682;2023-03-01T13:00:35;8.9;36.0
78448;SHT31;67742;51.972;5.682;2023-03-01T13:03:19;9.0;36.6
78448;SHT31;67742;51.972;5.682;2023-03-01T13:06:04;9.0;35.2
78448;SHT31;67742;51.972;5.682;2023-03-01T13:08:42;9.1;35.2
78448;SHT31;67742;51.972;5.682;2023-03-01T13:11:17;9.1;35.5
78448;SHT31;67742;51.972;5.682;2023-03-01T13:13:48;9.1;36.1
78448;SHT31;67742;51.972;5.682;2023-03-01T13:16:41;9.1;35.8
78448;SHT31;67742;51.972;5.682;2023-03-01T13:19:18;9.1;35.7
78448;SHT31;67742;51.972;5.682;2023-03-01T13:21:51;9.1;35.8
78448;SHT31;67742;51.972;5.682;2023-03-01T13:24:27;9.2;36.0
78448;SHT31;67742;51.972;5.682;2023-03-01T13:27:22;9.2;36.3
78448;SHT31;67742;51.972;5.682;2023-03-01T13:29:58;9.2;35.9
78448;SHT31;67742;51.972;5.682;2023-03-01T13:32:34;9.2;35.7
78448;SHT31;67742;51.972;5.682;2023-03-01T13:43:27;9.3;35.8
78448;SHT31;67742;51.972;5.682;2023-03-01T13:45:58;9.3;36.1
78448;SHT31;67742;51.972;5.682;2023-03-01T13:48:30;9.3;35.8
78448;SHT31;67742;51.972;5.682;2023-03-01T13:51:03;9.4;36.1
78448;SHT31;67742;51.972;5.682;2023-03-01T13:53:40;9.4;35.7
78448;SHT31;67742;51.972;5.682;2023-03-01T13:56:13;9.4;35.2
78448;SHT31;67742;51.972;5.682;2023-03-01T13:58:53;9.4;34.6
78448;SHT31;67742;51.972;5.682;2023-03-01T14:01:29;9.4;34.6
78448;SHT31;67742;51.972;5.682;2023-03-01T14:04:00;9.4;35.5
78448;SHT31;67742;51.972;5.682;2023-03-01T14:06:32;9.4;34.6
78448;SHT31;67742;51.972;5.682;2023-03-01T14:09:14;9.4;35.5
78448;SHT31;67742;51.972;5.682;2023-03-01T14:12:21;9.4;35.3
78448;SHT31;67742;51.972;5.682;2023-03-01T14:14:59;9.4;35.5
78448;SHT31;67742;51.972;5.682;2023-03-01T14:17:52;9.4;35.1
78448;SHT31;67742;51.972;5.682;2023-03-01T14:20:27;9.4;35.9
78448;SHT31;67742;51.972;5.682;2023-03-01T14:22:59;9.4;35.8
78448;SHT31;67742;51.972;5.682;2023-03-01T14:25:32;9.4;35.1
78448;SHT31;67742;51.972;5.682;2023-03-01T14:28:12;9.4;35.1
78448;SHT31;67742;51.972;5.682;2023-03-01T14:30:42;9.4;35.1
78448;SHT31;67742;51.972;5.682;2023-03-01T14:33:21;9.4;34.6
78448;SHT31;67742;51.972;5.682;2023-03-01T14:35:57;9.4;35.0
78448;SHT31;67742;51.972;5.682;2023-03-01T14:38:33;9.4;35.3
78448;SHT31;67742;51.972;5.682;2023-03-01T14:41:07;9.4;35.0
78448;SHT31;67742;51.972;5.682;2023-03-01T14:43:43;9.4;35.6
78448;SHT31;67742;51.972;5.682;2023-03-01T14:46:24;9.4;34.8
78448;SHT31;67742;51.972;5.682;2023-03-01T14:49:04;9.4;35.1
78448;SHT31;67742;51.972;5.682;2023-03-01T14:51:38;9.4;35.0
78448;SHT31;67742;51.972;5.682;2023-03-01T14:54:23;9.4;35.2
78448;SHT31;67742;51.972;5.682;2023-03-01T14:56:59;9.4;35.0
78448;SHT31;67742;51.972;5.682;2023-03-01T14:59:29;9.4;35.7
78448;SHT31;67742;51.972;5.682;2023-03-01T15:02:03;9.4;34.7
78448;SHT31;67742;51.972;5.682;2023-03-01T15:04:33;9.4;34.6
78448;SHT31;67742;51.972;5.682;2023-03-01T15:07:03;9.4;34.6
78448;SHT31;67742;51.972;5.682;2023-03-01T15:09:36;9.4;34.7
78448;SHT31;67742;51.972;5.682;2023-03-01T15:12:34;9.4;34.4
78448;SHT31;67742;51.972;5.682;2023-03-01T15:15:26;9.4;34.0
78448;SHT31;67742;51.972;5.682;2023-03-01T15:17:59;9.4;34.0
78448;SHT31;67742;51.972;5.682;2023-03-01T15:20:31;9.4;34.6
78448;SHT31;67742;51.972;5.682;2023-03-01T15:23:04;9.4;34.5
78448;SHT31;67742;51.972;5.682;2023-03-01T15:25:34;9.3;34.4
78448;SHT31;67742;51.972;5.682;2023-03-01T15:28:19;9.4;34.0
78448;SHT31;67742;51.972;5.682;2023-03-01T15:30:56;9.4;34.0
78448;SHT31;67742;51.972;5.682;2023-03-01T15:33:36;9.4;34.1
78448;SHT31;67742;51.972;5.682;2023-03-01T15:36:37;9.4;34.5
78448;SHT31;67742;51.972;5.682;2023-03-01T15:39:29;9.4;34.1
78448;SHT31;67742;51.972;5.682;2023-03-01T15:42:00;9.4;34.1
78448;SHT31;67742;51.972;5.682;2023-03-01T15:44:32;9.4;34.5
78448;SHT31;67742;51.972;5.682;2023-03-01T15:47:06;9.4;33.9
78448;SHT31;67742;51.972;5.682;2023-03-01T15:49:40;9.4;33.9
78448;SHT31;67742;51.972;5.682;2023-03-01T15:52:15;9.4;33.4
78448;SHT31;67742;51.972;5.682;2023-03-01T15:54:49;9.4;32.7
78448;SHT31;67742;51.972;5.682;2023-03-01T15:57:18;9.3;32.9
78448;SHT31;67742;51.972;5.682;2023-03-01T15:59:48;9.3;32.5
78448;SHT31;67742;51.972;5.682;2023-03-01T16:02:18;9.3;33.2
78448;SHT31;67742;51.972;5.682;2023-03-01T16:04:48;9.3;33.5
78448;SHT31;67742;51.972;5.682;2023-03-01T16:07:17;9.3;33.2
78448;SHT31;67742;51.972;5.682;2023-03-01T16:09:47;9.2;33.6
78448;SHT31;67742;51.972;5.682;2023-03-01T16:12:18;9.2;33.3
78448;SHT31;67742;51.972;5.682;2023-03-01T16:14:48;9.2;33.2
78448;SHT31;67742;51.972;5.682;2023-03-01T16:17:20;9.2;33.5
78448;SHT31;67742;51.972;5.682;2023-03-01T16:19:50;9.2;33.6
78448;SHT31;67742;51.972;5.682;2023-03-01T16:22:19;9.2;33.3
78448;SHT31;67742;51.972;5.682;2023-03-01T16:24:52;9.2;33.7
78448;SHT31;67742;51.972;5.682;2023-03-01T16:27:22;9.2;32.4
78448;SHT31;67742;51.972;5.682;2023-03-01T16:29:51;9.2;32.4
78448;SHT31;67742;51.972;5.682;2023-03-01T16:32:21;9.2;32.7
78448;SHT31;67742;51.972;5.682;2023-03-01T16:34:50;9.1;32.4
78448;SHT31;67742;51.972;5.682;2023-03-01T16:37:19;9.1;32.4
78448;SHT31;67742;51.972;5.682;2023-03-01T16:39:49;9.1;32.4
78448;SHT31;67742;51.972;5.682;2023-03-01T16:42:21;9.0;32.6
78448;SHT31;67742;51.972;5.682;2023-03-01T16:44:54;9.0;33.0
78448;SHT31;67742;51.972;5.682;2023-03-01T16:47:24;9.0;33.5
78448;SHT31;67742;51.972;5.682;2023-03-01T16:49:54;9.0;33.1
78448;SHT31;67742;51.972;5.682;2023-03-01T16:52:23;8.9;33.3
78448;SHT31;67742;51.972;5.682;2023-03-01T16:54:53;8.9;32.9
78448;SHT31;67742;51.972;5.682;2023-03-01T16:57:23;8.9;33.2
78448;SHT31;67742;51.972;5.682;2023-03-01T16:59:53;8.9;32.9
78448;SHT31;67742;51.972;5.682;2023-03-01T17:02:22;8.8;33.2
78448;SHT31;67742;51.972;5.682;2023-03-01T17:04:55;8.8;33.5
78448;SHT31;67742;51.972;5.682;2023-03-01T17:07:25;8.8;33.3
78448;SHT31;67742;51.972;5.682;2023-03-01T17:09:55;8.8;33.6